ABJ weather

Port Bouet Airport
Abidjan, Lagunes, Côte d'Ivoire

Public forecast

Using degrees Celsius for public forecast. Weather courtesy of forecast.io.

Current aviation weather report (METAR) for Port Bouet Airport

Retrieved 2019/10/14 19:30 UTC (0 seconds ago):

DIAP 141930Z VRB01KT 9999 -RA FEW011 24/23 Q1011 RETS NOSIG

Aviation forecast (TAF) for Port Bouet Airport

Retrieved 2019/10/14 18:00 UTC (1 hour ago):

TAF DIAP 141700Z 1418/1524 20007KT 8000 SCT012 SCT020CB BECMG 1418/1420 4000 TSRA BKN012 FEW020CB PROB30 TEMPO 1506/1509 4000 RA BKN010 PROB30 TEMPO 1512/1518 TS BKN012 FEW020CB PROB30 TEMPO 1518/1524 SCT012